createdAt,value
2023-03-29T00:00:19.415Z,1.39
2023-03-29T00:01:42.490Z,1.40
2023-03-29T00:03:04.321Z,1.39
2023-03-29T00:04:27.713Z,1.41
2023-03-29T00:05:49.583Z,1.41
2023-03-29T00:07:10.347Z,1.36
2023-03-29T00:08:35.398Z,1.37
2023-03-29T00:09:56.824Z,1.30
2023-03-29T00:11:19.117Z,1.38
2023-03-29T00:12:41.650Z,1.35
2023-03-29T00:14:02.790Z,1.32
2023-03-29T00:15:24.953Z,1.34
2023-03-29T00:16:46.916Z,1.31
2023-03-29T00:18:09.109Z,1.33
2023-03-29T00:19:35.710Z,1.31
2023-03-29T00:20:57.885Z,1.27
2023-03-29T00:22:19.825Z,1.26
2023-03-29T00:23:55.967Z,1.27
2023-03-29T00:25:17.249Z,1.24
2023-03-29T00:26:39.577Z,1.27
2023-03-29T00:28:03.320Z,1.26
2023-03-29T00:29:25.256Z,1.26
2023-03-29T00:30:47.181Z,1.28
2023-03-29T00:32:09.432Z,1.24
2023-03-29T00:33:30.546Z,1.18
2023-03-29T00:34:52.688Z,1.24
2023-03-29T00:36:14.771Z,1.18
2023-03-29T00:37:35.778Z,1.22
2023-03-29T00:38:59.247Z,1.23
2023-03-29T00:40:22.208Z,1.22
2023-03-29T00:41:45.332Z,1.19
2023-03-29T00:43:10.388Z,1.19
2023-03-29T00:44:57.364Z,1.19
2023-03-29T00:46:19.178Z,1.19
2023-03-29T00:47:46.308Z,1.18
2023-03-29T00:49:57.135Z,1.18
2023-03-29T00:51:20.858Z,1.14
2023-03-29T00:52:44.576Z,1.16
2023-03-29T00:54:14.739Z,1.14
2023-03-29T00:55:39.176Z,1.16
2023-03-29T00:57:04.127Z,1.16
2023-03-29T00:58:31.781Z,1.14
2023-03-29T00:59:54.971Z,1.13
2023-03-29T01:01:26.127Z,1.11
2023-03-29T01:02:54.604Z,1.15
2023-03-29T01:04:21.982Z,1.17
2023-03-29T01:05:48.954Z,1.16
2023-03-29T01:07:21.514Z,1.15
2023-03-29T01:08:48.020Z,1.16
2023-03-29T01:10:15.694Z,1.15
2023-03-29T01:11:43.294Z,1.15
2023-03-29T01:13:10.780Z,1.15
2023-03-29T01:14:36.112Z,1.15
2023-03-29T01:16:00.644Z,1.14
2023-03-29T01:17:25.633Z,1.15
2023-03-29T01:18:48.287Z,1.12
2023-03-29T01:20:15.091Z,1.14
2023-03-29T01:21:42.612Z,1.13
2023-03-29T01:23:21.416Z,1.13
2023-03-29T01:25:00.377Z,1.12
2023-03-29T01:26:32.628Z,1.12
2023-03-29T01:28:02.498Z,1.10
2023-03-29T01:29:28.023Z,1.12
2023-03-29T01:30:56.253Z,1.11
2023-03-29T01:32:23.677Z,1.11
2023-03-29T01:33:51.068Z,1.11
2023-03-29T01:35:16.523Z,1.12
2023-03-29T01:36:42.646Z,1.11
2023-03-29T01:38:09.914Z,1.06
2023-03-29T01:39:36.511Z,1.10
2023-03-29T01:40:58.383Z,1.07
2023-03-29T01:42:31.882Z,1.08
2023-03-29T01:44:00.334Z,1.11
2023-03-29T01:45:25.256Z,1.09
2023-03-29T01:46:53.838Z,1.09
2023-03-29T01:48:20.312Z,1.11
2023-03-29T01:49:48.082Z,1.09
2023-03-29T01:51:14.594Z,1.07
2023-03-29T01:52:40.638Z,1.06
2023-03-29T01:54:09.324Z,0.99
2023-03-29T01:55:35.057Z,1.08
2023-03-29T01:57:01.253Z,1.08
2023-03-29T01:58:29.866Z,1.05
2023-03-29T01:59:57.695Z,1.06
2023-03-29T02:01:23.422Z,1.05
2023-03-29T02:02:47.169Z,1.05
2023-03-29T02:04:14.280Z,1.06
2023-03-29T02:05:38.058Z,1.02
2023-03-29T02:07:02.063Z,1.00
2023-03-29T02:08:24.393Z,1.03
2023-03-29T02:09:47.118Z,1.05
2023-03-29T02:11:11.600Z,1.05
2023-03-29T02:12:37.320Z,1.03
2023-03-29T02:13:59.421Z,1.04
2023-03-29T02:15:23.587Z,1.03
2023-03-29T02:16:46.679Z,1.03
2023-03-29T02:18:08.178Z,1.01
2023-03-29T02:19:30.405Z,1.02
2023-03-29T02:20:54.287Z,1.02
2023-03-29T02:22:17.568Z,1.02
2023-03-29T02:23:45.549Z,1.01
2023-03-29T02:25:09.887Z,1.01
2023-03-29T02:26:33.916Z,1.01
2023-03-29T02:27:57.228Z,1.01
2023-03-29T02:29:18.436Z,1.00
2023-03-29T02:30:50.989Z,1.00
2023-03-29T02:32:18.636Z,0.98
2023-03-29T02:33:48.126Z,0.94
2023-03-29T02:35:17.578Z,1.00
2023-03-29T02:36:46.768Z,0.91
2023-03-29T02:38:12.578Z,1.00
2023-03-29T02:39:37.100Z,0.98
2023-03-29T02:41:03.898Z,0.97
2023-03-29T02:42:27.802Z,0.85
2023-03-29T02:43:50.028Z,0.97
2023-03-29T02:45:16.567Z,0.94
2023-03-29T02:46:39.894Z,0.94
2023-03-29T02:48:06.696Z,0.95
2023-03-29T02:49:28.069Z,0.97
2023-03-29T02:50:54.856Z,0.97
2023-03-29T02:52:19.439Z,0.96
2023-03-29T02:53:44.780Z,0.92
2023-03-29T02:55:15.042Z,0.93
2023-03-29T02:56:46.512Z,0.95
2023-03-29T02:58:08.793Z,0.97
2023-03-29T02:59:33.452Z,0.98
2023-03-29T03:00:57.779Z,0.97
2023-03-29T03:02:20.789Z,0.92
2023-03-29T03:03:43.048Z,0.96
2023-03-29T03:05:04.527Z,0.89
2023-03-29T03:06:29.382Z,0.99
2023-03-29T03:07:51.982Z,0.99
2023-03-29T03:09:17.035Z,0.99
2023-03-29T03:10:43.256Z,0.98
2023-03-29T03:12:04.657Z,0.92
2023-03-29T03:13:26.649Z,1.00
2023-03-29T03:14:49.945Z,0.99
2023-03-29T03:16:12.315Z,0.99
2023-03-29T03:17:40.035Z,1.03
2023-03-29T03:19:02.338Z,1.01
2023-03-29T03:20:26.826Z,1.03
2023-03-29T03:21:51.063Z,1.02
2023-03-29T03:23:15.143Z,0.95
2023-03-29T03:24:37.363Z,1.06
2023-03-29T03:26:00.144Z,1.02
2023-03-29T03:27:22.274Z,1.07
2023-03-29T03:28:44.150Z,1.08
2023-03-29T03:30:19.445Z,1.11
2023-03-29T03:32:15.738Z,1.04
2023-03-29T03:34:04.457Z,1.13
2023-03-29T03:35:41.747Z,1.06
2023-03-29T03:37:13.933Z,1.15
2023-03-29T03:38:39.432Z,1.05
2023-03-29T03:40:01.983Z,1.15
2023-03-29T03:41:26.662Z,1.11
2023-03-29T03:42:49.593Z,1.18
2023-03-29T03:44:13.415Z,1.16
2023-03-29T03:45:37.443Z,1.11
2023-03-29T03:47:09.938Z,1.10
2023-03-29T03:48:34.601Z,1.20
2023-03-29T03:50:19.994Z,1.11
2023-03-29T03:51:45.570Z,1.18
2023-03-29T03:53:09.437Z,1.20
2023-03-29T03:54:50.423Z,1.18
2023-03-29T03:56:38.780Z,1.17
2023-03-29T03:58:29.627Z,1.19
2023-03-29T03:59:52.446Z,1.18
2023-03-29T04:01:24.087Z,1.21
2023-03-29T04:02:57.749Z,1.18
2023-03-29T04:04:19.887Z,1.22
2023-03-29T04:06:03.902Z,1.22
2023-03-29T04:07:42.790Z,1.22
2023-03-29T04:09:22.765Z,1.23
2023-03-29T04:10:58.505Z,1.23
2023-03-29T04:12:26.250Z,1.22
2023-03-29T04:13:48.055Z,1.21
2023-03-29T04:15:39.319Z,1.21
2023-03-29T04:17:07.475Z,1.24
2023-03-29T04:18:44.232Z,1.22
2023-03-29T04:20:11.729Z,1.24
2023-03-29T04:21:38.525Z,1.27
2023-03-29T04:23:00.666Z,1.29
2023-03-29T04:24:24.830Z,1.31
2023-03-29T04:26:07.840Z,1.29
2023-03-29T04:27:42.746Z,1.26
2023-03-29T04:29:19.037Z,1.36
2023-03-29T04:30:48.399Z,1.33
2023-03-29T04:32:15.223Z,1.38
2023-03-29T04:33:51.697Z,1.34
2023-03-29T04:35:14.894Z,1.34
2023-03-29T04:36:37.382Z,1.38
2023-03-29T04:38:04.553Z,1.30
2023-03-29T04:39:34.075Z,1.36
2023-03-29T04:40:59.292Z,1.38
2023-03-29T04:42:42.487Z,1.36
2023-03-29T04:44:04.656Z,1.37
2023-03-29T04:45:27.564Z,1.41
2023-03-29T04:47:05.134Z,1.43
2023-03-29T04:50:36.346Z,1.36
2023-03-29T04:51:57.740Z,1.47
2023-03-29T04:53:23.391Z,1.44
2023-03-29T04:54:47.024Z,1.49
2023-03-29T04:56:20.052Z,1.53
2023-03-29T04:58:06.491Z,1.52
2023-03-29T04:59:32.714Z,1.54
2023-03-29T05:00:58.290Z,1.57
2023-03-29T05:02:24.733Z,1.58
2023-03-29T05:03:47.394Z,1.56
2023-03-29T05:05:28.164Z,1.57
2023-03-29T05:08:44.748Z,1.50
2023-03-29T05:10:50.316Z,1.54
2023-03-29T05:12:13.173Z,1.53
2023-03-29T05:13:55.273Z,1.59
2023-03-29T05:15:22.228Z,1.47
2023-03-29T05:16:45.154Z,1.58
2023-03-29T05:18:07.255Z,1.58
2023-03-29T05:19:29.850Z,1.59
2023-03-29T05:20:53.150Z,1.56
2023-03-29T05:22:21.824Z,1.59
2023-03-29T05:23:45.027Z,1.59
2023-03-29T05:25:06.921Z,1.59
2023-03-29T05:26:29.781Z,1.63
2023-03-29T05:27:53.236Z,1.57
2023-03-29T05:29:14.655Z,1.63
2023-03-29T05:30:40.701Z,1.65
2023-03-29T05:32:10.069Z,1.65
2023-03-29T05:33:37.388Z,1.68
2023-03-29T05:35:00.578Z,1.66
2023-03-29T05:36:22.314Z,1.66
2023-03-29T05:37:48.504Z,1.67
2023-03-29T05:39:11.178Z,1.60
2023-03-29T05:40:36.095Z,1.70
2023-03-29T05:42:32.977Z,1.61
2023-03-29T05:44:00.910Z,1.70
2023-03-29T05:45:24.862Z,1.74
2023-03-29T05:46:46.457Z,1.76
2023-03-29T05:48:11.879Z,1.80
2023-03-29T05:49:38.175Z,1.84
2023-03-29T05:51:17.534Z,1.85
2023-03-29T05:52:41.154Z,1.91
2023-03-29T05:54:04.776Z,1.92
2023-03-29T05:55:27.165Z,1.99
2023-03-29T05:56:49.241Z,1.97
2023-03-29T05:58:12.451Z,2.07
2023-03-29T05:59:35.596Z,2.02
2023-03-29T06:01:00.787Z,2.14
2023-03-29T06:02:46.607Z,2.19
2023-03-29T06:04:09.333Z,2.23
2023-03-29T06:05:41.152Z,2.27
2023-03-29T06:07:05.116Z,2.36
2023-03-29T06:08:28.715Z,2.43
2023-03-29T06:10:00.620Z,2.54
2023-03-29T06:11:26.422Z,2.64
2023-03-29T06:13:12.069Z,2.79
2023-03-29T06:14:34.637Z,2.94
2023-03-29T06:16:19.063Z,3.15
2023-03-29T06:17:40.784Z,3.28
2023-03-29T06:19:02.296Z,3.49
2023-03-29T06:20:25.619Z,3.68
2023-03-29T06:21:54.388Z,3.87
2023-03-29T06:23:22.425Z,4.05
2023-03-29T06:24:44.920Z,4.22
2023-03-29T06:26:20.164Z,4.41
2023-03-29T06:27:43.158Z,4.58
2023-03-29T06:29:05.878Z,4.78
2023-03-29T06:30:29.008Z,4.97
2023-03-29T06:31:51.937Z,5.21
2023-03-29T06:33:34.239Z,5.45
2023-03-29T06:35:16.636Z,5.70
2023-03-29T06:36:47.804Z,5.86
2023-03-29T06:38:11.252Z,6.06
2023-03-29T06:39:57.105Z,6.27
2023-03-29T06:41:34.732Z,6.52
2023-03-29T06:43:02.490Z,6.77
2023-03-29T06:44:28.500Z,7.02
2023-03-29T06:45:59.182Z,7.26
2023-03-29T06:47:31.679Z,7.47
2023-03-29T06:48:53.992Z,7.74
2023-03-29T06:50:21.293Z,7.97
2023-03-29T06:51:58.322Z,8.25
2023-03-29T06:53:20.431Z,8.48
2023-03-29T06:54:50.598Z,8.70
2023-03-29T06:56:14.723Z,8.93
2023-03-29T06:57:40.122Z,9.15
2023-03-29T06:59:02.718Z,9.33
2023-03-29T07:00:42.405Z,9.62
2023-03-29T07:02:13.582Z,9.80
2023-03-29T07:03:57.359Z,9.93
2023-03-29T07:05:28.006Z,10.11
2023-03-29T07:06:58.874Z,10.30
2023-03-29T07:08:21.435Z,10.42
2023-03-29T07:09:55.653Z,10.59
2023-03-29T07:11:36.787Z,10.68
2023-03-29T07:13:27.752Z,10.88
2023-03-29T07:14:56.399Z,11.07
2023-03-29T07:16:22.539Z,11.23
2023-03-29T07:18:05.946Z,11.43
2023-03-29T07:19:30.331Z,11.58
2023-03-29T07:21:04.236Z,11.67
2023-03-29T07:22:31.332Z,11.78
2023-03-29T07:23:57.221Z,11.92
2023-03-29T07:25:20.385Z,11.97
2023-03-29T07:26:52.137Z,12.00
2023-03-29T07:28:38.975Z,12.20
2023-03-29T07:30:12.156Z,12.28
2023-03-29T07:31:46.890Z,12.42
2023-03-29T07:33:48.751Z,12.67
2023-03-29T07:35:48.281Z,13.01
2023-03-29T07:37:36.567Z,13.30
2023-03-29T07:39:04.011Z,13.79
2023-03-29T07:40:36.975Z,14.23
2023-03-29T07:45:36.705Z,15.07
2023-03-29T07:47:26.257Z,15.49
2023-03-29T07:48:48.755Z,15.68
2023-03-29T07:50:13.717Z,15.87
2023-03-29T07:51:37.224Z,16.02
2023-03-29T07:53:03.973Z,16.15
2023-03-29T07:54:28.857Z,16.35
2023-03-29T07:56:10.378Z,16.54
2023-03-29T07:57:55.729Z,16.73
2023-03-29T07:59:17.788Z,16.91
2023-03-29T08:00:45.497Z,17.21
2023-03-29T08:02:29.864Z,17.59
2023-03-29T08:03:56.935Z,18.10
2023-03-29T08:05:40.803Z,18.48
2023-03-29T08:07:09.478Z,18.66
2023-03-29T08:09:01.553Z,18.88
2023-03-29T08:10:23.047Z,19.08
2023-03-29T08:11:59.947Z,19.27
2023-03-29T08:13:28.648Z,19.54
2023-03-29T08:15:16.168Z,19.78
2023-03-29T08:18:36.415Z,20.29
2023-03-29T08:20:02.499Z,20.84
2023-03-29T08:21:24.658Z,21.29
2023-03-29T08:22:50.440Z,21.69
2023-03-29T08:24:26.585Z,21.99
2023-03-29T08:25:53.656Z,22.39
2023-03-29T08:27:15.864Z,22.78
2023-03-29T08:28:41.012Z,23.19
2023-03-29T08:30:05.315Z,23.69
2023-03-29T08:31:29.829Z,24.20
2023-03-29T08:32:55.409Z,24.75
2023-03-29T08:34:18.183Z,25.08
2023-03-29T08:35:42.315Z,25.00
2023-03-29T08:37:11.181Z,25.39
2023-03-29T08:38:37.749Z,25.94
2023-03-29T08:40:00.376Z,26.33
2023-03-29T08:41:42.176Z,26.56
2023-03-29T08:43:22.416Z,26.65
2023-03-29T08:45:14.744Z,26.64
2023-03-29T08:46:45.881Z,26.66
2023-03-29T08:48:35.604Z,27.07
2023-03-29T08:50:02.021Z,27.33
2023-03-29T08:51:38.238Z,29.01
2023-03-29T08:53:05.975Z,30.39
2023-03-29T08:54:51.836Z,32.43
2023-03-29T08:56:42.068Z,35.29
2023-03-29T08:58:19.652Z,36.99
2023-03-29T08:59:43.732Z,38.59
2023-03-29T09:01:11.472Z,40.05
2023-03-29T09:02:47.182Z,41.20
2023-03-29T09:04:15.271Z,42.10
2023-03-29T09:05:49.550Z,42.88
2023-03-29T09:07:26.638Z,43.59
2023-03-29T09:08:53.817Z,44.51
2023-03-29T09:10:54.984Z,44.98
2023-03-29T09:12:27.652Z,45.49
2023-03-29T09:13:59.810Z,45.83
2023-03-29T09:15:25.471Z,45.60
2023-03-29T09:16:57.174Z,43.78
2023-03-29T09:18:25.631Z,43.07
2023-03-29T09:19:56.154Z,43.67
2023-03-29T09:21:23.955Z,43.87
2023-03-29T09:22:53.479Z,44.35
2023-03-29T09:24:39.131Z,44.76
2023-03-29T09:26:18.837Z,45.32
2023-03-29T09:28:22.618Z,45.49
2023-03-29T09:29:59.713Z,44.05
2023-03-29T09:31:44.600Z,42.14
2023-03-29T09:33:14.236Z,43.20
2023-03-29T09:35:03.447Z,44.20
2023-03-29T09:36:42.102Z,44.44
2023-03-29T09:38:05.660Z,44.49
2023-03-29T09:39:31.407Z,44.42
2023-03-29T09:41:21.387Z,44.12
2023-03-29T09:42:46.158Z,43.70
2023-03-29T09:44:23.980Z,42.94
2023-03-29T09:45:57.997Z,41.10
2023-03-29T09:47:26.397Z,41.11
2023-03-29T09:48:51.834Z,41.71
2023-03-29T09:50:30.967Z,41.06
2023-03-29T09:52:00.996Z,40.66
2023-03-29T09:53:23.544Z,40.34
2023-03-29T09:55:07.861Z,39.90
2023-03-29T09:56:45.585Z,39.46
2023-03-29T09:58:16.273Z,38.78
2023-03-29T09:59:42.984Z,38.27
2023-03-29T10:01:10.404Z,37.66
2023-03-29T10:02:33.506Z,37.17
2023-03-29T10:03:55.502Z,36.84
2023-03-29T10:05:20.053Z,36.47
2023-03-29T10:06:49.290Z,35.99
2023-03-29T10:08:20.060Z,35.45
2023-03-29T10:09:44.801Z,35.07
2023-03-29T10:11:16.368Z,34.49
2023-03-29T10:12:38.869Z,33.76
2023-03-29T10:14:04.424Z,33.09
2023-03-29T10:15:30.126Z,32.33
2023-03-29T10:16:57.501Z,31.80
2023-03-29T10:18:19.380Z,31.41
2023-03-29T10:19:50.467Z,31.07
2023-03-29T10:21:16.826Z,30.58
2023-03-29T10:22:40.889Z,30.07
2023-03-29T10:24:02.787Z,29.47
2023-03-29T10:25:26.551Z,28.75
2023-03-29T10:26:49.464Z,28.26
2023-03-29T10:28:16.282Z,27.76
2023-03-29T10:29:41.211Z,27.28
2023-03-29T10:31:04.207Z,26.94
2023-03-29T10:32:31.776Z,26.50
2023-03-29T10:33:55.621Z,26.10
2023-03-29T10:35:24.173Z,25.72
2023-03-29T10:36:54.776Z,25.30
2023-03-29T10:38:19.759Z,24.96
2023-03-29T10:39:41.944Z,24.63
2023-03-29T10:41:10.168Z,24.35
2023-03-29T10:42:32.854Z,24.05
2023-03-29T10:43:57.138Z,23.83
2023-03-29T10:45:27.706Z,23.51
2023-03-29T10:46:49.965Z,23.33
2023-03-29T10:48:14.127Z,23.09
2023-03-29T10:50:06.121Z,22.80
2023-03-29T10:51:31.500Z,22.66
2023-03-29T10:52:55.301Z,22.50
2023-03-29T10:54:21.060Z,22.39
2023-03-29T10:55:56.022Z,22.29
2023-03-29T10:57:32.696Z,22.12
2023-03-29T10:59:22.064Z,21.99
2023-03-29T11:00:48.492Z,21.87
2023-03-29T11:02:43.413Z,21.72
2023-03-29T11:04:17.575Z,21.61
2023-03-29T11:05:46.569Z,21.53
2023-03-29T11:07:27.292Z,21.42
2023-03-29T11:08:57.573Z,21.38
2023-03-29T11:10:32.338Z,21.34
2023-03-29T11:12:31.565Z,21.28
2023-03-29T11:14:00.060Z,21.23
2023-03-29T11:15:35.440Z,21.19
2023-03-29T11:17:09.579Z,21.14
2023-03-29T11:18:54.888Z,21.04
2023-03-29T11:20:29.658Z,21.00
2023-03-29T11:22:00.440Z,20.90
2023-03-29T11:23:39.970Z,20.88
2023-03-29T11:25:19.033Z,20.86
2023-03-29T11:26:53.870Z,20.88
2023-03-29T11:28:25.610Z,20.88
2023-03-29T11:29:59.417Z,20.85
2023-03-29T11:31:34.478Z,20.79
2023-03-29T11:33:07.090Z,20.74
2023-03-29T11:34:38.015Z,20.63
2023-03-29T11:36:06.874Z,20.56
2023-03-29T11:37:36.109Z,20.45
2023-03-29T11:39:05.556Z,20.31
2023-03-29T11:40:44.814Z,20.17
2023-03-29T11:42:13.166Z,20.04
2023-03-29T11:43:39.581Z,19.94
2023-03-29T11:45:08.291Z,19.82
2023-03-29T11:46:36.547Z,19.70
2023-03-29T11:48:12.320Z,19.55
2023-03-29T11:49:42.568Z,19.32
2023-03-29T11:51:12.130Z,19.15
2023-03-29T11:52:39.175Z,18.83
2023-03-29T11:54:07.124Z,18.54
2023-03-29T11:55:33.743Z,18.23
2023-03-29T11:57:02.839Z,17.89
2023-03-29T11:58:31.298Z,17.59
2023-03-29T12:00:00.280Z,17.27
2023-03-29T12:01:34.774Z,16.91
2023-03-29T12:03:01.404Z,16.61
2023-03-29T12:04:28.771Z,16.29
2023-03-29T12:05:56.853Z,16.02
2023-03-29T12:07:25.336Z,15.71
2023-03-29T12:08:54.103Z,15.43
2023-03-29T12:10:21.231Z,15.17
2023-03-29T12:11:54.204Z,14.90
2023-03-29T12:13:20.704Z,14.70
2023-03-29T12:14:57.897Z,14.47
2023-03-29T12:16:27.740Z,14.30
2023-03-29T12:17:56.274Z,14.13
2023-03-29T12:19:22.981Z,13.99
2023-03-29T12:20:49.884Z,13.84
2023-03-29T12:22:12.957Z,13.70
2023-03-29T12:23:39.733Z,13.53
2023-03-29T12:25:10.364Z,13.44
2023-03-29T12:26:53.898Z,13.35
2023-03-29T12:28:58.201Z,13.32
2023-03-29T12:33:48.835Z,13.51
2023-03-29T12:35:56.239Z,13.31
2023-03-29T12:40:21.743Z,13.07
2023-03-29T12:45:09.409Z,12.84
2023-03-29T12:46:37.238Z,12.80
2023-03-29T12:48:30.450Z,12.69
2023-03-29T12:50:03.968Z,12.58
2023-03-29T12:51:43.128Z,12.58
2023-03-29T12:56:39.971Z,12.37
2023-03-29T12:58:30.455Z,12.44
2023-03-29T13:00:36.906Z,12.53
2023-03-29T13:02:48.981Z,12.65
2023-03-29T13:11:06.971Z,12.37
2023-03-29T13:13:03.504Z,12.49
2023-03-29T13:15:24.259Z,12.55
2023-03-29T13:18:16.097Z,12.58
2023-03-29T13:20:40.822Z,12.53
2023-03-29T13:22:17.527Z,12.49
2023-03-29T13:23:50.503Z,12.38
2023-03-29T13:27:20.930Z,12.38
2023-03-29T13:29:23.927Z,12.37
2023-03-29T13:31:00.365Z,12.38
2023-03-29T13:32:55.407Z,12.33
2023-03-29T13:35:11.240Z,12.45
2023-03-29T13:39:43.007Z,12.57
2023-03-29T13:41:28.483Z,12.57
2023-03-29T13:56:59.902Z,12.81
2023-03-29T13:59:03.222Z,12.72
2023-03-29T14:00:59.208Z,12.75
2023-03-29T14:03:13.848Z,12.63
2023-03-29T14:05:37.055Z,12.60
2023-03-29T14:12:24.013Z,12.43
2023-03-29T14:21:20.193Z,12.64
2023-03-29T14:23:35.241Z,12.69
2023-03-29T14:25:16.692Z,12.66
2023-03-29T14:27:09.144Z,12.50
2023-03-29T14:31:44.812Z,12.34
2023-03-29T14:33:20.031Z,12.23
2023-03-29T14:34:48.831Z,12.26
2023-03-29T14:36:22.579Z,12.13
2023-03-29T14:38:28.172Z,12.11
2023-03-29T14:47:20.469Z,11.92
2023-03-29T14:55:49.779Z,12.11
2023-03-29T14:57:58.669Z,12.20
2023-03-29T15:00:15.816Z,12.26
2023-03-29T15:02:44.079Z,11.97
2023-03-29T16:13:55.467Z,10.81
2023-03-29T16:22:48.538Z,10.67
2023-03-29T16:38:24.673Z,10.47
2023-03-29T16:39:51.907Z,10.40
2023-03-29T16:41:20.178Z,10.41
2023-03-29T16:43:29.209Z,10.33
2023-03-29T16:45:06.155Z,10.39
2023-03-29T16:48:43.567Z,10.27
2023-03-29T16:50:08.551Z,10.31
2023-03-29T16:51:39.994Z,10.23
2023-03-29T16:53:37.531Z,10.27
2023-03-29T16:55:02.609Z,10.22
2023-03-29T16:56:28.459Z,10.25
2023-03-29T16:57:51.355Z,10.17
2023-03-29T16:59:19.731Z,10.14
2023-03-29T17:00:42.046Z,10.19
2023-03-29T17:02:06.901Z,10.18
2023-03-29T17:03:30.527Z,10.19
2023-03-29T17:04:54.092Z,10.13
2023-03-29T17:06:19.818Z,10.13
2023-03-29T17:07:43.582Z,10.10
2023-03-29T17:09:21.650Z,10.13
2023-03-29T17:13:43.052Z,10.08
2023-03-29T17:14:34.906Z,10.03
2023-03-29T17:16:37.150Z,9.93
2023-03-29T17:18:15.749Z,9.90
2023-03-29T17:19:51.778Z,9.90
2023-03-29T17:21:14.126Z,9.85
2023-03-29T17:22:38.726Z,9.79
2023-03-29T17:24:04.765Z,9.82
2023-03-29T17:25:40.825Z,9.77
2023-03-29T17:27:03.396Z,9.79
2023-03-29T17:28:31.988Z,9.80
2023-03-29T17:29:54.991Z,9.73
2023-03-29T17:31:19.693Z,9.82
2023-03-29T17:32:45.966Z,9.76
2023-03-29T17:34:12.235Z,9.81
2023-03-29T17:35:36.360Z,9.76
2023-03-29T17:37:04.842Z,9.69
2023-03-29T17:38:30.767Z,9.69
2023-03-29T17:39:57.069Z,9.69
2023-03-29T17:41:35.618Z,9.73
2023-03-29T17:43:06.144Z,9.70
2023-03-29T17:44:35.975Z,9.73
2023-03-29T17:46:01.858Z,9.65
2023-03-29T17:47:24.187Z,9.70
2023-03-29T17:48:49.042Z,9.69
2023-03-29T17:50:13.058Z,9.68
2023-03-29T17:51:37.100Z,9.60
2023-03-29T17:53:07.091Z,9.61
2023-03-29T17:54:29.467Z,9.59
2023-03-29T17:55:57.440Z,9.58
2023-03-29T17:57:20.201Z,9.58
2023-03-29T17:58:49.248Z,9.53
2023-03-29T18:00:14.375Z,9.54
2023-03-29T18:01:39.652Z,9.51
2023-03-29T18:03:02.630Z,9.58
2023-03-29T18:04:31.664Z,9.58
2023-03-29T18:05:56.525Z,9.56
2023-03-29T18:07:21.352Z,9.47
2023-03-29T18:08:46.044Z,9.46
2023-03-29T18:10:15.910Z,9.55
2023-03-29T18:14:38.566Z,9.46
2023-03-29T18:16:01.904Z,9.43
2023-03-29T18:17:30.078Z,9.38
2023-03-29T18:19:05.922Z,9.38
2023-03-29T18:20:39.400Z,9.43
2023-03-29T18:22:02.201Z,9.41
2023-03-29T18:23:30.221Z,9.43
2023-03-29T18:25:13.841Z,9.37
2023-03-29T18:27:16.034Z,9.31
2023-03-29T18:28:42.886Z,9.36
2023-03-29T18:30:16.967Z,9.29
2023-03-29T18:31:42.975Z,9.37
2023-03-29T18:33:47.268Z,9.35
2023-03-29T18:42:40.939Z,9.19
2023-03-29T19:00:21.644Z,9.01
2023-03-29T19:01:53.484Z,9.03
2023-03-29T19:05:09.677Z,8.98
2023-03-29T19:06:28.036Z,9.03
2023-03-29T19:07:50.642Z,8.97
2023-03-29T19:11:41.168Z,9.02
2023-03-29T19:20:25.893Z,8.95
2023-03-29T19:22:09.268Z,8.94
2023-03-29T19:24:52.960Z,8.93
2023-03-29T19:30:02.300Z,9.02
2023-03-29T19:44:08.543Z,8.86
2023-03-29T19:46:41.590Z,8.96
2023-03-29T19:52:23.118Z,8.93
2023-03-29T19:54:35.124Z,8.96
2023-03-29T20:02:45.778Z,8.94
2023-03-29T20:06:43.039Z,8.91
2023-03-29T20:18:23.250Z,8.99
2023-03-29T21:45:07.474Z,8.29
2023-03-29T21:56:34.852Z,8.03
2023-03-29T21:58:45.091Z,7.98
2023-03-29T22:01:40.504Z,8.02
2023-03-29T22:05:41.668Z,8.08
2023-03-29T22:07:24.480Z,8.11
2023-03-29T22:09:39.908Z,8.17
2023-03-29T22:11:14.084Z,8.13
2023-03-29T22:31:35.510Z,8.33
2023-03-29T23:33:50.121Z,8.44
2023-03-29T23:43:20.763Z,8.42
2023-03-29T23:50:48.663Z,8.46
